createdAt,value
2018-10-12T12:52:09.660Z,17.60
2018-10-12T12:54:38.190Z,24.90
2018-10-12T12:57:06.637Z,25.80
2018-10-12T12:59:35.184Z,27.10
2018-10-12T13:02:03.738Z,28.00
2018-10-12T13:04:32.244Z,29.10
2018-10-12T13:07:00.743Z,29.90
2018-10-12T13:09:29.054Z,30.90
2018-10-12T13:11:57.405Z,31.60
2018-10-12T13:14:25.713Z,32.00
2018-10-12T13:16:54.239Z,32.40
2018-10-12T13:19:22.582Z,32.90
2018-10-12T13:21:51.171Z,33.30
2018-10-12T13:24:19.686Z,33.70
2018-10-12T13:26:48.305Z,33.60
2018-10-12T13:29:16.766Z,33.90
2018-10-12T13:31:45.129Z,34.30
2018-10-12T13:34:13.405Z,34.80
2018-10-12T13:36:41.699Z,35.00
2018-10-12T13:39:11.874Z,35.20
2018-10-12T13:41:40.398Z,35.10
2018-10-12T13:44:09.673Z,35.10
2018-10-12T13:46:38.409Z,35.60
2018-10-12T13:49:07.111Z,35.90
2018-10-12T13:51:35.509Z,36.30
2018-10-12T13:54:03.838Z,37.00
2018-10-12T13:56:32.694Z,37.20
2018-10-12T13:59:01.076Z,37.60
2018-10-12T14:01:29.751Z,37.70
2018-10-12T14:03:58.419Z,37.80
2018-10-12T14:06:26.866Z,38.00
2018-10-12T14:08:55.186Z,37.90
2018-10-12T14:11:23.507Z,37.50
2018-10-12T14:13:52.170Z,37.10
2018-10-12T14:16:20.611Z,37.00
2018-10-12T14:18:49.284Z,37.50
2018-10-12T14:21:17.474Z,37.70
2018-10-12T14:23:45.790Z,37.80
2018-10-12T14:26:14.406Z,37.70
2018-10-12T14:28:42.762Z,38.00
2018-10-12T14:31:11.194Z,37.60
2018-10-12T14:33:39.790Z,37.60
2018-10-12T14:36:08.291Z,37.40
2018-10-12T14:38:36.735Z,37.40
2018-10-12T14:41:05.103Z,37.70
2018-10-12T14:43:33.646Z,37.40
2018-10-12T14:46:01.959Z,36.00
2018-10-12T14:48:30.243Z,34.00
2018-10-12T14:50:58.532Z,32.00
2018-10-12T14:53:26.903Z,30.40
2018-10-12T14:55:55.162Z,29.20
2018-10-12T14:58:23.502Z,28.30
2018-10-12T15:00:51.830Z,27.60
2018-10-12T15:03:20.140Z,26.90
2018-10-12T15:05:48.445Z,26.50
2018-10-12T15:08:16.710Z,26.10
2018-10-12T15:10:45.015Z,25.80
2018-10-12T15:13:13.283Z,25.50
2018-10-12T15:15:41.717Z,25.30
2018-10-12T15:18:10.120Z,25.00
